sensor_id;sensor_type;location;lat;lon;timestamp;P1;durP1;ratioP1;P2;durP2;ratioP2
73154;SDS011;66341;52.418;7.382;2023-02-13T00:00:34;16.60;;;16.58;;
73154;SDS011;66341;52.418;7.382;2023-02-13T00:03:00;15.83;;;15.83;;
73154;SDS011;66341;52.418;7.382;2023-02-13T00:05:25;16.50;;;16.48;;
73154;SDS011;66341;52.418;7.382;2023-02-13T00:07:51;17.53;;;17.37;;
73154;SDS011;66341;52.418;7.382;2023-02-13T00:10:16;18.09;;;18.03;;
73154;SDS011;66341;52.418;7.382;2023-02-13T00:12:42;18.17;;;18.17;;
73154;SDS011;66341;52.418;7.382;2023-02-13T00:15:14;18.46;;;18.45;;
73154;SDS011;66341;52.418;7.382;2023-02-13T00:17:39;19.35;;;19.32;;
73154;SDS011;66341;52.418;7.382;2023-02-13T00:20:05;19.96;;;19.88;;
73154;SDS011;66341;52.418;7.382;2023-02-13T00:22:35;20.12;;;20.10;;
73154;SDS011;66341;52.418;7.382;2023-02-13T00:25:02;20.59;;;20.53;;
73154;SDS011;66341;52.418;7.382;2023-02-13T00:27:27;20.61;;;20.59;;
73154;SDS011;66341;52.418;7.382;2023-02-13T00:29:53;20.26;;;20.26;;
73154;SDS011;66341;52.418;7.382;2023-02-13T00:35:04;20.11;;;20.10;;
73154;SDS011;66341;52.418;7.382;2023-02-13T00:37:30;21.28;;;21.26;;
73154;SDS011;66341;52.418;7.382;2023-02-13T00:39:55;21.55;;;21.49;;
73154;SDS011;66341;52.418;7.382;2023-02-13T00:45:25;20.73;;;20.66;;
73154;SDS011;66341;52.418;7.382;2023-02-13T00:50:26;20.69;;;20.60;;
73154;SDS011;66341;52.418;7.382;2023-02-13T00:52:54;20.81;;;20.61;;
73154;SDS011;66341;52.418;7.382;2023-02-13T00:55:20;20.15;;;20.11;;
73154;SDS011;66341;52.418;7.382;2023-02-13T00:57:47;19.77;;;19.73;;
73154;SDS011;66341;52.418;7.382;2023-02-13T01:00:13;19.78;;;19.73;;
73154;SDS011;66341;52.418;7.382;2023-02-13T01:02:41;19.97;;;19.78;;
73154;SDS011;66341;52.418;7.382;2023-02-13T01:05:07;19.86;;;19.56;;
73154;SDS011;66341;52.418;7.382;2023-02-13T01:07:42;21.17;;;20.83;;
73154;SDS011;66341;52.418;7.382;2023-02-13T01:10:08;20.65;;;20.51;;
73154;SDS011;66341;52.418;7.382;2023-02-13T01:12:41;19.84;;;19.78;;
73154;SDS011;66341;52.418;7.382;2023-02-13T01:15:07;21.18;;;20.80;;
73154;SDS011;66341;52.418;7.382;2023-02-13T01:17:39;20.50;;;20.29;;
73154;SDS011;66341;52.418;7.382;2023-02-13T01:20:08;20.36;;;20.21;;
73154;SDS011;66341;52.418;7.382;2023-02-13T01:22:35;19.28;;;19.19;;
73154;SDS011;66341;52.418;7.382;2023-02-13T01:25:12;19.87;;;19.83;;
73154;SDS011;66341;52.418;7.382;2023-02-13T01:27:39;20.10;;;19.99;;
73154;SDS011;66341;52.418;7.382;2023-02-13T01:30:06;19.92;;;19.76;;
73154;SDS011;66341;52.418;7.382;2023-02-13T01:32:41;19.15;;;19.07;;
73154;SDS011;66341;52.418;7.382;2023-02-13T01:35:19;19.12;;;19.12;;
73154;SDS011;66341;52.418;7.382;2023-02-13T01:37:47;18.99;;;18.89;;
73154;SDS011;66341;52.418;7.382;2023-02-13T01:40:14;18.28;;;18.21;;
73154;SDS011;66341;52.418;7.382;2023-02-13T01:42:54;19.11;;;19.06;;
73154;SDS011;66341;52.418;7.382;2023-02-13T01:45:27;18.63;;;18.59;;
73154;SDS011;66341;52.418;7.382;2023-02-13T01:47:58;18.62;;;18.61;;
73154;SDS011;66341;52.418;7.382;2023-02-13T01:55:49;19.78;;;19.63;;
73154;SDS011;66341;52.418;7.382;2023-02-13T01:58:18;20.87;;;20.75;;
73154;SDS011;66341;52.418;7.382;2023-02-13T02:00:45;20.72;;;20.65;;
73154;SDS011;66341;52.418;7.382;2023-02-13T02:03:20;20.19;;;20.18;;
73154;SDS011;66341;52.418;7.382;2023-02-13T02:05:49;19.71;;;19.70;;
73154;SDS011;66341;52.418;7.382;2023-02-13T02:08:16;20.02;;;20.01;;
73154;SDS011;66341;52.418;7.382;2023-02-13T02:10:43;19.22;;;19.22;;
73154;SDS011;66341;52.418;7.382;2023-02-13T02:13:11;18.50;;;18.48;;
73154;SDS011;66341;52.418;7.382;2023-02-13T02:15:37;17.80;;;17.70;;
73154;SDS011;66341;52.418;7.382;2023-02-13T02:18:17;17.40;;;17.37;;
73154;SDS011;66341;52.418;7.382;2023-02-13T02:24:06;18.40;;;18.38;;
73154;SDS011;66341;52.418;7.382;2023-02-13T02:30:12;17.54;;;17.52;;
73154;SDS011;66341;52.418;7.382;2023-02-13T02:35:32;19.12;;;19.00;;
73154;SDS011;66341;52.418;7.382;2023-02-13T02:41:14;18.99;;;18.96;;
73154;SDS011;66341;52.418;7.382;2023-02-13T02:44:00;18.88;;;18.85;;
73154;SDS011;66341;52.418;7.382;2023-02-13T02:49:41;17.19;;;17.07;;
73154;SDS011;66341;52.418;7.382;2023-02-13T02:52:52;17.23;;;17.19;;
73154;SDS011;66341;52.418;7.382;2023-02-13T03:00:38;18.65;;;18.65;;
73154;SDS011;66341;52.418;7.382;2023-02-13T03:03:25;19.54;;;19.53;;
73154;SDS011;66341;52.418;7.382;2023-02-13T03:09:14;20.01;;;19.95;;
73154;SDS011;66341;52.418;7.382;2023-02-13T03:12:12;18.43;;;18.36;;
73154;SDS011;66341;52.418;7.382;2023-02-13T03:15:00;17.26;;;17.19;;
73154;SDS011;66341;52.418;7.382;2023-02-13T03:17:26;18.17;;;18.16;;
73154;SDS011;66341;52.418;7.382;2023-02-13T03:25:27;19.10;;;19.00;;
73154;SDS011;66341;52.418;7.382;2023-02-13T03:31:07;18.26;;;18.23;;
73154;SDS011;66341;52.418;7.382;2023-02-13T03:42:07;17.97;;;17.89;;
73154;SDS011;66341;52.418;7.382;2023-02-13T03:44:38;18.57;;;18.51;;
73154;SDS011;66341;52.418;7.382;2023-02-13T03:47:08;18.02;;;18.01;;
73154;SDS011;66341;52.418;7.382;2023-02-13T03:49:45;18.24;;;18.24;;
73154;SDS011;66341;52.418;7.382;2023-02-13T03:52:45;17.88;;;17.88;;
73154;SDS011;66341;52.418;7.382;2023-02-13T03:55:19;18.81;;;18.81;;
73154;SDS011;66341;52.418;7.382;2023-02-13T03:58:08;19.30;;;19.17;;
73154;SDS011;66341;52.418;7.382;2023-02-13T04:00:56;20.33;;;20.29;;
73154;SDS011;66341;52.418;7.382;2023-02-13T04:05:53;18.88;;;18.87;;
73154;SDS011;66341;52.418;7.382;2023-02-13T04:08:31;18.49;;;18.44;;
73154;SDS011;66341;52.418;7.382;2023-02-13T04:11:03;17.75;;;17.61;;
73154;SDS011;66341;52.418;7.382;2023-02-13T04:13:51;18.15;;;17.92;;
73154;SDS011;66341;52.418;7.382;2023-02-13T04:16:43;18.17;;;18.10;;
73154;SDS011;66341;52.418;7.382;2023-02-13T04:19:12;18.04;;;18.03;;
73154;SDS011;66341;52.418;7.382;2023-02-13T04:21:40;17.96;;;17.96;;
73154;SDS011;66341;52.418;7.382;2023-02-13T04:24:10;19.47;;;19.33;;
73154;SDS011;66341;52.418;7.382;2023-02-13T04:26:37;18.81;;;18.67;;
73154;SDS011;66341;52.418;7.382;2023-02-13T04:29:18;17.86;;;17.84;;
73154;SDS011;66341;52.418;7.382;2023-02-13T04:31:44;18.34;;;18.25;;
73154;SDS011;66341;52.418;7.382;2023-02-13T04:34:10;19.06;;;19.04;;
73154;SDS011;66341;52.418;7.382;2023-02-13T04:36:35;20.09;;;20.06;;
73154;SDS011;66341;52.418;7.382;2023-02-13T04:39:01;20.38;;;20.31;;
73154;SDS011;66341;52.418;7.382;2023-02-13T04:41:27;20.06;;;19.90;;
73154;SDS011;66341;52.418;7.382;2023-02-13T04:44:03;19.52;;;19.49;;
73154;SDS011;66341;52.418;7.382;2023-02-13T04:46:29;19.88;;;19.83;;
73154;SDS011;66341;52.418;7.382;2023-02-13T04:51:50;21.43;;;21.43;;
73154;SDS011;66341;52.418;7.382;2023-02-13T04:56:55;22.54;;;22.53;;
73154;SDS011;66341;52.418;7.382;2023-02-13T04:59:24;21.83;;;21.82;;
73154;SDS011;66341;52.418;7.382;2023-02-13T05:01:50;20.30;;;20.29;;
73154;SDS011;66341;52.418;7.382;2023-02-13T05:04:16;21.18;;;21.11;;
73154;SDS011;66341;52.418;7.382;2023-02-13T05:06:45;20.34;;;20.32;;
73154;SDS011;66341;52.418;7.382;2023-02-13T05:09:18;20.67;;;20.67;;
73154;SDS011;66341;52.418;7.382;2023-02-13T05:11:44;20.28;;;20.28;;
73154;SDS011;66341;52.418;7.382;2023-02-13T05:14:20;19.29;;;19.29;;
73154;SDS011;66341;52.418;7.382;2023-02-13T05:16:46;20.12;;;20.09;;
73154;SDS011;66341;52.418;7.382;2023-02-13T05:19:18;20.46;;;20.46;;
73154;SDS011;66341;52.418;7.382;2023-02-13T05:21:43;22.38;;;22.38;;
73154;SDS011;66341;52.418;7.382;2023-02-13T05:24:28;21.86;;;21.85;;
73154;SDS011;66341;52.418;7.382;2023-02-13T05:26:53;21.54;;;21.54;;
73154;SDS011;66341;52.418;7.382;2023-02-13T05:29:19;21.16;;;21.16;;
73154;SDS011;66341;52.418;7.382;2023-02-13T05:31:56;22.38;;;22.38;;
73154;SDS011;66341;52.418;7.382;2023-02-13T05:34:41;21.35;;;21.32;;
73154;SDS011;66341;52.418;7.382;2023-02-13T05:37:06;20.84;;;20.83;;
73154;SDS011;66341;52.418;7.382;2023-02-13T05:39:32;20.14;;;20.14;;
73154;SDS011;66341;52.418;7.382;2023-02-13T05:42:04;20.70;;;20.65;;
73154;SDS011;66341;52.418;7.382;2023-02-13T05:44:30;21.65;;;21.65;;
73154;SDS011;66341;52.418;7.382;2023-02-13T05:46:56;21.56;;;21.56;;
73154;SDS011;66341;52.418;7.382;2023-02-13T05:49:23;21.91;;;21.91;;
73154;SDS011;66341;52.418;7.382;2023-02-13T05:54:29;22.12;;;22.11;;
73154;SDS011;66341;52.418;7.382;2023-02-13T05:56:55;22.74;;;22.72;;
73154;SDS011;66341;52.418;7.382;2023-02-13T05:59:20;22.57;;;22.54;;
73154;SDS011;66341;52.418;7.382;2023-02-13T06:01:46;21.79;;;21.68;;
73154;SDS011;66341;52.418;7.382;2023-02-13T06:04:11;23.23;;;23.18;;
73154;SDS011;66341;52.418;7.382;2023-02-13T06:06:37;24.82;;;24.81;;
73154;SDS011;66341;52.418;7.382;2023-02-13T06:09:03;24.78;;;24.75;;
73154;SDS011;66341;52.418;7.382;2023-02-13T06:14:01;24.87;;;24.85;;
73154;SDS011;66341;52.418;7.382;2023-02-13T06:16:27;24.90;;;24.72;;
73154;SDS011;66341;52.418;7.382;2023-02-13T06:21:46;24.40;;;24.32;;
73154;SDS011;66341;52.418;7.382;2023-02-13T06:27:14;23.82;;;23.81;;
73154;SDS011;66341;52.418;7.382;2023-02-13T06:29:40;24.52;;;24.49;;
73154;SDS011;66341;52.418;7.382;2023-02-13T06:32:06;26.09;;;25.73;;
73154;SDS011;66341;52.418;7.382;2023-02-13T06:34:32;25.57;;;25.44;;
73154;SDS011;66341;52.418;7.382;2023-02-13T06:37:15;26.12;;;26.08;;
73154;SDS011;66341;52.418;7.382;2023-02-13T06:39:41;25.62;;;25.61;;
73154;SDS011;66341;52.418;7.382;2023-02-13T06:42:06;25.55;;;25.51;;
73154;SDS011;66341;52.418;7.382;2023-02-13T06:44:44;25.31;;;25.29;;
73154;SDS011;66341;52.418;7.382;2023-02-13T06:47:10;25.46;;;25.44;;
73154;SDS011;66341;52.418;7.382;2023-02-13T06:49:35;25.11;;;25.08;;
73154;SDS011;66341;52.418;7.382;2023-02-13T06:52:01;25.08;;;24.91;;
73154;SDS011;66341;52.418;7.382;2023-02-13T06:54:26;25.59;;;25.32;;
73154;SDS011;66341;52.418;7.382;2023-02-13T06:56:52;25.34;;;25.34;;
73154;SDS011;66341;52.418;7.382;2023-02-13T06:59:17;27.23;;;27.12;;
73154;SDS011;66341;52.418;7.382;2023-02-13T07:01:49;26.64;;;26.39;;
73154;SDS011;66341;52.418;7.382;2023-02-13T07:04:15;25.96;;;25.74;;
73154;SDS011;66341;52.418;7.382;2023-02-13T07:06:41;26.17;;;26.05;;
73154;SDS011;66341;52.418;7.382;2023-02-13T07:09:06;25.50;;;25.35;;
73154;SDS011;66341;52.418;7.382;2023-02-13T07:11:32;26.34;;;26.17;;
73154;SDS011;66341;52.418;7.382;2023-02-13T07:13:57;25.40;;;25.34;;
73154;SDS011;66341;52.418;7.382;2023-02-13T07:16:38;26.37;;;26.07;;
73154;SDS011;66341;52.418;7.382;2023-02-13T07:19:04;24.87;;;24.66;;
73154;SDS011;66341;52.418;7.382;2023-02-13T07:21:30;26.81;;;26.52;;
73154;SDS011;66341;52.418;7.382;2023-02-13T07:23:55;25.70;;;25.64;;
73154;SDS011;66341;52.418;7.382;2023-02-13T07:26:21;26.97;;;26.78;;
73154;SDS011;66341;52.418;7.382;2023-02-13T07:28:46;25.58;;;25.47;;
73154;SDS011;66341;52.418;7.382;2023-02-13T07:31:20;25.26;;;25.19;;
73154;SDS011;66341;52.418;7.382;2023-02-13T07:33:48;26.09;;;26.02;;
73154;SDS011;66341;52.418;7.382;2023-02-13T07:36:26;27.34;;;27.11;;
73154;SDS011;66341;52.418;7.382;2023-02-13T07:38:52;26.60;;;26.50;;
73154;SDS011;66341;52.418;7.382;2023-02-13T07:41:18;27.75;;;27.47;;
73154;SDS011;66341;52.418;7.382;2023-02-13T07:43:46;28.24;;;27.70;;
73154;SDS011;66341;52.418;7.382;2023-02-13T07:46:12;26.26;;;25.95;;
73154;SDS011;66341;52.418;7.382;2023-02-13T07:48:43;25.70;;;25.43;;
73154;SDS011;66341;52.418;7.382;2023-02-13T07:51:09;25.88;;;25.50;;
73154;SDS011;66341;52.418;7.382;2023-02-13T07:53:55;25.54;;;25.33;;
73154;SDS011;66341;52.418;7.382;2023-02-13T07:56:21;26.44;;;26.18;;
73154;SDS011;66341;52.418;7.382;2023-02-13T08:01:49;26.60;;;26.56;;
73154;SDS011;66341;52.418;7.382;2023-02-13T08:07:21;25.80;;;25.31;;
73154;SDS011;66341;52.418;7.382;2023-02-13T08:09:48;24.65;;;24.51;;
73154;SDS011;66341;52.418;7.382;2023-02-13T08:12:33;26.15;;;25.87;;
73154;SDS011;66341;52.418;7.382;2023-02-13T08:15:00;26.61;;;26.32;;
73154;SDS011;66341;52.418;7.382;2023-02-13T08:17:25;26.73;;;26.38;;
73154;SDS011;66341;52.418;7.382;2023-02-13T08:19:51;25.91;;;25.71;;
73154;SDS011;66341;52.418;7.382;2023-02-13T08:22:18;26.51;;;26.29;;
73154;SDS011;66341;52.418;7.382;2023-02-13T08:24:45;26.30;;;26.08;;
73154;SDS011;66341;52.418;7.382;2023-02-13T08:27:20;25.56;;;25.34;;
73154;SDS011;66341;52.418;7.382;2023-02-13T08:29:48;25.84;;;25.62;;
73154;SDS011;66341;52.418;7.382;2023-02-13T08:32:17;25.11;;;25.05;;
73154;SDS011;66341;52.418;7.382;2023-02-13T08:34:44;26.19;;;25.88;;
73154;SDS011;66341;52.418;7.382;2023-02-13T08:39:44;26.84;;;26.43;;
73154;SDS011;66341;52.418;7.382;2023-02-13T08:42:10;25.79;;;25.48;;
73154;SDS011;66341;52.418;7.382;2023-02-13T08:44:43;25.29;;;24.95;;
73154;SDS011;66341;52.418;7.382;2023-02-13T08:47:09;25.50;;;25.07;;
73154;SDS011;66341;52.418;7.382;2023-02-13T08:49:36;25.75;;;25.23;;
73154;SDS011;66341;52.418;7.382;2023-02-13T08:52:17;25.08;;;24.63;;
73154;SDS011;66341;52.418;7.382;2023-02-13T08:54:42;25.36;;;24.96;;
73154;SDS011;66341;52.418;7.382;2023-02-13T08:57:08;25.11;;;24.57;;
73154;SDS011;66341;52.418;7.382;2023-02-13T08:59:33;24.94;;;24.48;;
73154;SDS011;66341;52.418;7.382;2023-02-13T09:01:59;24.90;;;24.35;;
73154;SDS011;66341;52.418;7.382;2023-02-13T09:04:25;24.32;;;24.00;;
73154;SDS011;66341;52.418;7.382;2023-02-13T09:09:23;24.83;;;24.36;;
73154;SDS011;66341;52.418;7.382;2023-02-13T09:11:48;25.16;;;24.93;;
73154;SDS011;66341;52.418;7.382;2023-02-13T09:14:15;25.64;;;25.49;;
73154;SDS011;66341;52.418;7.382;2023-02-13T09:16:42;23.92;;;23.63;;
73154;SDS011;66341;52.418;7.382;2023-02-13T09:19:08;23.83;;;23.36;;
73154;SDS011;66341;52.418;7.382;2023-02-13T09:21:33;24.47;;;24.04;;
73154;SDS011;66341;52.418;7.382;2023-02-13T09:24:05;23.55;;;23.26;;
73154;SDS011;66341;52.418;7.382;2023-02-13T09:26:31;23.20;;;23.01;;
73154;SDS011;66341;52.418;7.382;2023-02-13T09:29:09;22.31;;;22.04;;
73154;SDS011;66341;52.418;7.382;2023-02-13T09:31:35;22.88;;;22.55;;
73154;SDS011;66341;52.418;7.382;2023-02-13T09:34:00;21.57;;;21.42;;
73154;SDS011;66341;52.418;7.382;2023-02-13T09:36:26;24.07;;;23.97;;
73154;SDS011;66341;52.418;7.382;2023-02-13T09:38:52;21.94;;;21.91;;
73154;SDS011;66341;52.418;7.382;2023-02-13T09:41:32;20.99;;;20.62;;
73154;SDS011;66341;52.418;7.382;2023-02-13T09:44:01;20.93;;;20.59;;
73154;SDS011;66341;52.418;7.382;2023-02-13T09:46:32;21.45;;;21.06;;
73154;SDS011;66341;52.418;7.382;2023-02-13T09:49:00;21.59;;;21.18;;
73154;SDS011;66341;52.418;7.382;2023-02-13T09:51:31;21.84;;;21.20;;
73154;SDS011;66341;52.418;7.382;2023-02-13T09:54:01;20.67;;;20.24;;
73154;SDS011;66341;52.418;7.382;2023-02-13T09:58:57;21.66;;;21.04;;
73154;SDS011;66341;52.418;7.382;2023-02-13T10:01:29;21.66;;;21.11;;
73154;SDS011;66341;52.418;7.382;2023-02-13T10:06:38;21.08;;;20.61;;
73154;SDS011;66341;52.418;7.382;2023-02-13T10:12:19;20.90;;;20.50;;
73154;SDS011;66341;52.418;7.382;2023-02-13T10:23:34;20.91;;;20.68;;
73154;SDS011;66341;52.418;7.382;2023-02-13T10:35:25;22.09;;;21.58;;
73154;SDS011;66341;52.418;7.382;2023-02-13T10:37:54;21.37;;;20.96;;
73154;SDS011;66341;52.418;7.382;2023-02-13T10:46:16;21.70;;;21.43;;
73154;SDS011;66341;52.418;7.382;2023-02-13T11:04:37;18.73;;;18.54;;
73154;SDS011;66341;52.418;7.382;2023-02-13T11:07:09;18.82;;;18.47;;
73154;SDS011;66341;52.418;7.382;2023-02-13T11:15:37;19.18;;;18.93;;
73154;SDS011;66341;52.418;7.382;2023-02-13T11:18:13;20.35;;;20.08;;
73154;SDS011;66341;52.418;7.382;2023-02-13T11:20:43;20.24;;;20.00;;
73154;SDS011;66341;52.418;7.382;2023-02-13T11:23:27;21.57;;;20.72;;
73154;SDS011;66341;52.418;7.382;2023-02-13T11:31:13;21.19;;;21.15;;
73154;SDS011;66341;52.418;7.382;2023-02-13T11:33:39;21.74;;;21.15;;
73154;SDS011;66341;52.418;7.382;2023-02-13T11:36:09;21.25;;;21.18;;
73154;SDS011;66341;52.418;7.382;2023-02-13T11:44:48;21.28;;;20.89;;
73154;SDS011;66341;52.418;7.382;2023-02-13T11:53:05;20.45;;;20.33;;
73154;SDS011;66341;52.418;7.382;2023-02-13T11:55:33;21.37;;;21.15;;
73154;SDS011;66341;52.418;7.382;2023-02-13T12:01:06;22.22;;;21.86;;
73154;SDS011;66341;52.418;7.382;2023-02-13T12:03:39;21.12;;;21.03;;
73154;SDS011;66341;52.418;7.382;2023-02-13T12:06:11;20.72;;;20.29;;
73154;SDS011;66341;52.418;7.382;2023-02-13T12:08:38;20.07;;;19.63;;
73154;SDS011;66341;52.418;7.382;2023-02-13T12:11:29;19.06;;;18.99;;
73154;SDS011;66341;52.418;7.382;2023-02-13T12:13:56;18.57;;;18.53;;
73154;SDS011;66341;52.418;7.382;2023-02-13T12:19:11;18.21;;;18.05;;
73154;SDS011;66341;52.418;7.382;2023-02-13T12:27:14;17.98;;;17.92;;
73154;SDS011;66341;52.418;7.382;2023-02-13T12:30:10;17.24;;;17.01;;
73154;SDS011;66341;52.418;7.382;2023-02-13T12:40:57;17.21;;;17.01;;
73154;SDS011;66341;52.418;7.382;2023-02-13T12:43:43;16.22;;;16.06;;
73154;SDS011;66341;52.418;7.382;2023-02-13T13:02:50;17.86;;;17.60;;
73154;SDS011;66341;52.418;7.382;2023-02-13T13:07:57;18.16;;;17.69;;
73154;SDS011;66341;52.418;7.382;2023-02-13T13:10:39;18.16;;;17.90;;
73154;SDS011;66341;52.418;7.382;2023-02-13T13:13:21;17.70;;;17.55;;
73154;SDS011;66341;52.418;7.382;2023-02-13T13:16:23;17.47;;;17.33;;
73154;SDS011;66341;52.418;7.382;2023-02-13T13:19:12;17.28;;;17.17;;
73154;SDS011;66341;52.418;7.382;2023-02-13T13:21:50;17.63;;;17.17;;
73154;SDS011;66341;52.418;7.382;2023-02-13T13:26:47;18.24;;;17.93;;
73154;SDS011;66341;52.418;7.382;2023-02-13T13:32:10;17.42;;;16.78;;
73154;SDS011;66341;52.418;7.382;2023-02-13T13:34:40;18.17;;;17.69;;
73154;SDS011;66341;52.418;7.382;2023-02-13T13:47:36;17.98;;;17.42;;
73154;SDS011;66341;52.418;7.382;2023-02-13T13:50:18;17.74;;;17.31;;
73154;SDS011;66341;52.418;7.382;2023-02-13T13:58:32;17.36;;;17.09;;
73154;SDS011;66341;52.418;7.382;2023-02-13T14:03:48;17.41;;;16.99;;
73154;SDS011;66341;52.418;7.382;2023-02-13T14:08:58;17.76;;;17.20;;
73154;SDS011;66341;52.418;7.382;2023-02-13T14:11:38;16.36;;;16.21;;
73154;SDS011;66341;52.418;7.382;2023-02-13T14:16:56;17.86;;;17.46;;
73154;SDS011;66341;52.418;7.382;2023-02-13T14:21:49;17.47;;;16.95;;
73154;SDS011;66341;52.418;7.382;2023-02-13T14:24:16;17.14;;;16.71;;
73154;SDS011;66341;52.418;7.382;2023-02-13T14:26:48;16.87;;;16.56;;
73154;SDS011;66341;52.418;7.382;2023-02-13T14:29:31;17.61;;;17.11;;
73154;SDS011;66341;52.418;7.382;2023-02-13T14:32:14;17.82;;;17.19;;
73154;SDS011;66341;52.418;7.382;2023-02-13T14:34:58;17.57;;;17.14;;
73154;SDS011;66341;52.418;7.382;2023-02-13T14:37:34;17.90;;;17.11;;
73154;SDS011;66341;52.418;7.382;2023-02-13T14:40:26;18.44;;;18.17;;
73154;SDS011;66341;52.418;7.382;2023-02-13T14:43:04;17.95;;;17.67;;
73154;SDS011;66341;52.418;7.382;2023-02-13T14:45:56;17.35;;;17.05;;
73154;SDS011;66341;52.418;7.382;2023-02-13T14:48:33;18.17;;;17.44;;
73154;SDS011;66341;52.418;7.382;2023-02-13T14:51:04;17.42;;;16.87;;
73154;SDS011;66341;52.418;7.382;2023-02-13T14:53:37;16.19;;;15.89;;
73154;SDS011;66341;52.418;7.382;2023-02-13T14:56:38;16.33;;;15.97;;
73154;SDS011;66341;52.418;7.382;2023-02-13T14:59:14;16.55;;;16.05;;
73154;SDS011;66341;52.418;7.382;2023-02-13T15:04:29;15.35;;;15.31;;
73154;SDS011;66341;52.418;7.382;2023-02-13T15:06:57;15.39;;;15.26;;
73154;SDS011;66341;52.418;7.382;2023-02-13T15:09:39;15.02;;;14.68;;
73154;SDS011;66341;52.418;7.382;2023-02-13T15:12:22;15.25;;;15.14;;
73154;SDS011;66341;52.418;7.382;2023-02-13T15:17:55;14.59;;;14.54;;
73154;SDS011;66341;52.418;7.382;2023-02-13T15:20:38;15.50;;;15.13;;
73154;SDS011;66341;52.418;7.382;2023-02-13T15:23:24;14.58;;;14.49;;
73154;SDS011;66341;52.418;7.382;2023-02-13T15:26:05;14.64;;;14.34;;
73154;SDS011;66341;52.418;7.382;2023-02-13T15:28:32;14.69;;;14.46;;
73154;SDS011;66341;52.418;7.382;2023-02-13T15:33:42;14.39;;;14.04;;
73154;SDS011;66341;52.418;7.382;2023-02-13T15:36:16;14.46;;;14.07;;
73154;SDS011;66341;52.418;7.382;2023-02-13T15:38:43;15.09;;;14.68;;
73154;SDS011;66341;52.418;7.382;2023-02-13T15:41:21;13.90;;;13.81;;
73154;SDS011;66341;52.418;7.382;2023-02-13T15:43:50;14.78;;;14.57;;
73154;SDS011;66341;52.418;7.382;2023-02-13T15:49:12;14.81;;;14.38;;
73154;SDS011;66341;52.418;7.382;2023-02-13T15:52:02;14.85;;;14.52;;
73154;SDS011;66341;52.418;7.382;2023-02-13T15:54:30;14.03;;;13.82;;
73154;SDS011;66341;52.418;7.382;2023-02-13T15:56:58;14.29;;;14.13;;
73154;SDS011;66341;52.418;7.382;2023-02-13T15:59:27;13.91;;;13.64;;
73154;SDS011;66341;52.418;7.382;2023-02-13T16:04:32;14.54;;;14.10;;
73154;SDS011;66341;52.418;7.382;2023-02-13T16:07:07;15.32;;;14.90;;
73154;SDS011;66341;52.418;7.382;2023-02-13T16:09:36;14.63;;;14.29;;
73154;SDS011;66341;52.418;7.382;2023-02-13T16:14:57;20.67;;;20.27;;
73154;SDS011;66341;52.418;7.382;2023-02-13T16:17:28;20.72;;;20.60;;
73154;SDS011;66341;52.418;7.382;2023-02-13T16:27:48;17.45;;;17.16;;
73154;SDS011;66341;52.418;7.382;2023-02-13T16:35:50;15.88;;;15.53;;
73154;SDS011;66341;52.418;7.382;2023-02-13T16:41:00;15.30;;;14.84;;
73154;SDS011;66341;52.418;7.382;2023-02-13T16:43:43;14.71;;;14.22;;
73154;SDS011;66341;52.418;7.382;2023-02-13T16:46:23;14.81;;;14.44;;
73154;SDS011;66341;52.418;7.382;2023-02-13T16:53:55;14.59;;;14.22;;
73154;SDS011;66341;52.418;7.382;2023-02-13T16:56:21;14.11;;;13.90;;
73154;SDS011;66341;52.418;7.382;2023-02-13T16:58:51;15.37;;;14.93;;
73154;SDS011;66341;52.418;7.382;2023-02-13T17:01:27;18.12;;;17.66;;
73154;SDS011;66341;52.418;7.382;2023-02-13T17:03:53;17.63;;;17.55;;
73154;SDS011;66341;52.418;7.382;2023-02-13T17:06:25;17.51;;;17.18;;
73154;SDS011;66341;52.418;7.382;2023-02-13T17:08:53;17.06;;;16.55;;
73154;SDS011;66341;52.418;7.382;2023-02-13T17:11:19;15.30;;;14.85;;
73154;SDS011;66341;52.418;7.382;2023-02-13T17:13:44;15.15;;;14.84;;
73154;SDS011;66341;52.418;7.382;2023-02-13T17:16:10;14.96;;;14.65;;
73154;SDS011;66341;52.418;7.382;2023-02-13T17:18:38;15.28;;;14.92;;
73154;SDS011;66341;52.418;7.382;2023-02-13T17:21:04;16.09;;;15.55;;
73154;SDS011;66341;52.418;7.382;2023-02-13T17:26:01;16.99;;;16.75;;
73154;SDS011;66341;52.418;7.382;2023-02-13T17:28:30;15.82;;;15.42;;
73154;SDS011;66341;52.418;7.382;2023-02-13T17:30:58;15.36;;;15.23;;
73154;SDS011;66341;52.418;7.382;2023-02-13T17:33:26;15.66;;;15.44;;
73154;SDS011;66341;52.418;7.382;2023-02-13T17:35:58;14.40;;;13.98;;
73154;SDS011;66341;52.418;7.382;2023-02-13T17:38:25;14.47;;;14.18;;
73154;SDS011;66341;52.418;7.382;2023-02-13T17:43:53;14.12;;;13.85;;
73154;SDS011;66341;52.418;7.382;2023-02-13T17:46:25;13.08;;;13.05;;
73154;SDS011;66341;52.418;7.382;2023-02-13T17:51:43;15.87;;;15.48;;
73154;SDS011;66341;52.418;7.382;2023-02-13T17:54:10;15.10;;;15.00;;
73154;SDS011;66341;52.418;7.382;2023-02-13T17:56:37;15.58;;;15.25;;
73154;SDS011;66341;52.418;7.382;2023-02-13T17:59:03;17.38;;;16.97;;
73154;SDS011;66341;52.418;7.382;2023-02-13T18:01:28;17.79;;;17.35;;
73154;SDS011;66341;52.418;7.382;2023-02-13T18:03:58;17.03;;;16.77;;
73154;SDS011;66341;52.418;7.382;2023-02-13T18:06:23;15.84;;;15.50;;
73154;SDS011;66341;52.418;7.382;2023-02-13T18:08:49;15.64;;;15.47;;
73154;SDS011;66341;52.418;7.382;2023-02-13T18:11:15;15.05;;;14.77;;
73154;SDS011;66341;52.418;7.382;2023-02-13T18:13:40;14.71;;;14.46;;
73154;SDS011;66341;52.418;7.382;2023-02-13T18:16:13;14.23;;;14.10;;
73154;SDS011;66341;52.418;7.382;2023-02-13T18:21:14;13.68;;;13.62;;
73154;SDS011;66341;52.418;7.382;2023-02-13T18:23:42;14.95;;;14.70;;
73154;SDS011;66341;52.418;7.382;2023-02-13T18:26:14;15.38;;;15.14;;
73154;SDS011;66341;52.418;7.382;2023-02-13T18:28:42;15.06;;;15.06;;
73154;SDS011;66341;52.418;7.382;2023-02-13T18:31:08;16.61;;;16.30;;
73154;SDS011;66341;52.418;7.382;2023-02-13T18:33:38;26.33;;;25.81;;
73154;SDS011;66341;52.418;7.382;2023-02-13T18:36:10;25.03;;;24.69;;
73154;SDS011;66341;52.418;7.382;2023-02-13T18:38:37;25.66;;;25.17;;
73154;SDS011;66341;52.418;7.382;2023-02-13T18:41:03;24.35;;;23.95;;
73154;SDS011;66341;52.418;7.382;2023-02-13T18:43:38;24.89;;;24.64;;
73154;SDS011;66341;52.418;7.382;2023-02-13T18:46:04;20.39;;;20.08;;
73154;SDS011;66341;52.418;7.382;2023-02-13T18:48:32;15.04;;;14.65;;
73154;SDS011;66341;52.418;7.382;2023-02-13T18:50:59;14.86;;;14.38;;
73154;SDS011;66341;52.418;7.382;2023-02-13T18:53:27;17.14;;;16.68;;
73154;SDS011;66341;52.418;7.382;2023-02-13T18:56:03;16.41;;;16.22;;
73154;SDS011;66341;52.418;7.382;2023-02-13T18:58:38;16.84;;;16.52;;
73154;SDS011;66341;52.418;7.382;2023-02-13T19:01:07;16.94;;;16.81;;
73154;SDS011;66341;52.418;7.382;2023-02-13T19:03:35;17.48;;;17.20;;
73154;SDS011;66341;52.418;7.382;2023-02-13T19:06:04;17.06;;;16.71;;
73154;SDS011;66341;52.418;7.382;2023-02-13T19:08:30;17.21;;;17.03;;
73154;SDS011;66341;52.418;7.382;2023-02-13T19:10:59;15.97;;;15.87;;
73154;SDS011;66341;52.418;7.382;2023-02-13T19:13:27;13.49;;;13.40;;
73154;SDS011;66341;52.418;7.382;2023-02-13T19:15:54;14.34;;;14.19;;
73154;SDS011;66341;52.418;7.382;2023-02-13T19:18:20;14.04;;;13.91;;